Time;durP1;ratioP1;P1;durP2;ratioP2;P2;SDS_P1;SDS_P2;PMS_P1;PMS_P2;Temp;Humidity;BMP_temperature;BMP_pressure;BME280_temperature;BME280_humidity;BME280_pressure;Samples;Min_cycle;Max_cycle;Signal;HPM_P1;HPM_P2
2021/07/15 00:01:25;;;;;;;9.95;6.97;;;;;;;26.27;48.73;94534.16;2968070;40;20148;-82
2021/07/15 00:03:29;;;;;;;9.02;7.35;;;;;;;26.19;49.41;94530.06;2963701;40;20057;-81
2021/07/15 00:05:32;;;;;;;7.75;6.95;;;;;;;26.23;49.48;94543.78;2967517;40;20044;-82
2021/07/15 00:07:33;;;;;;;8.00;7.05;;;;;;;26.14;49.57;94541.59;2959541;40;20060;-82
2021/07/15 00:09:37;;;;;;;9.80;7.50;;;;;;;26.14;49.92;94544.28;2974014;40;20112;-82
2021/07/15 00:11:40;;;;;;;12.45;7.88;;;;;;;26.12;50.22;94537.56;2967756;40;20543;-81
2021/07/15 00:13:42;;;;;;;9.55;7.57;;;;;;;26.15;49.88;94534.34;2972591;40;20060;-82
2021/07/15 00:15:47;;;;;;;10.05;7.43;;;;;;;26.21;50.06;94538.69;2966022;40;20080;-81
2021/07/15 00:17:49;;;;;;;8.65;7.47;;;;;;;26.09;50.64;94538.91;2968342;40;20040;-81
2021/07/15 00:19:51;;;;;;;7.90;7.07;;;;;;;26.06;50.70;94544.78;2968121;40;20420;-82
2021/07/15 00:21:53;;;;;;;9.60;7.05;;;;;;;26.09;50.87;94544.25;2970376;40;20107;-69
2021/07/15 00:23:56;;;;;;;9.95;7.60;;;;;;;26.16;50.84;94546.72;2964328;40;20664;-69
2021/07/15 00:25:58;;;;;;;10.43;7.03;;;;;;;26.04;51.52;94548.78;2959250;40;20049;-82
2021/07/15 00:27:59;;;;;;;9.55;7.13;;;;;;;25.97;51.52;94543.66;2974247;40;20077;-82
2021/07/15 00:30:01;;;;;;;10.63;7.03;;;;;;;25.98;51.72;94549.81;2968325;40;20310;-83
2021/07/15 00:32:03;;;;;;;8.73;7.50;;;;;;;26.11;51.20;94543.97;2967830;40;20364;-84
2021/07/15 00:34:05;;;;;;;10.90;7.35;;;;;;;26.16;51.07;94549.41;2967450;40;20064;-83
2021/07/15 00:36:07;;;;;;;10.30;7.63;;;;;;;26.23;51.05;94546.47;2964563;40;20062;-81
2021/07/15 00:38:09;;;;;;;11.52;7.25;;;;;;;26.27;51.08;94552.94;2968071;40;20445;-81
2021/07/15 00:40:13;;;;;;;9.57;6.80;;;;;;;26.31;50.91;94559.41;2967434;40;20137;-69
2021/07/15 00:42:15;;;;;;;8.68;7.05;;;;;;;26.33;51.21;94559.97;2959529;40;20064;-69
2021/07/15 00:44:16;;;;;;;11.15;7.03;;;;;;;26.39;50.68;94550.03;2961019;40;20121;-69
2021/07/15 00:46:18;;;;;;;10.90;7.32;;;;;;;26.42;50.55;94552.22;2966108;40;20068;-68
2021/07/15 00:48:21;;;;;;;9.98;6.50;;;;;;;26.31;50.98;94552.16;2968270;40;20088;-69
2021/07/15 00:50:24;;;;;;;10.10;7.47;;;;;;;26.32;51.03;94550.28;2963669;40;20056;-68
2021/07/15 00:52:26;;;;;;;10.80;7.90;;;;;;;26.32;51.10;94545.72;2967019;40;20425;-69
2021/07/15 00:54:28;;;;;;;9.25;7.60;;;;;;;26.33;51.30;94551.91;2963860;40;20290;-69
2021/07/15 00:56:30;;;;;;;10.75;7.78;;;;;;;26.30;51.10;94552.41;2966911;40;20121;-71
2021/07/15 00:58:31;;;;;;;13.52;7.68;;;;;;;26.24;51.71;94537.34;2966928;40;20056;-69
2021/07/15 01:00:34;;;;;;;12.45;7.05;;;;;;;26.08;52.04;94542.63;2966595;40;20040;-70
2021/07/15 01:02:36;;;;;;;10.50;7.60;;;;;;;26.09;52.14;94548.81;2961384;40;20071;-69
2021/07/15 01:04:38;;;;;;;13.57;7.13;;;;;;;26.09;52.26;94541.59;2962371;40;20056;-81
2021/07/15 01:06:40;;;;;;;8.50;6.93;;;;;;;26.02;52.73;94532.13;2969593;40;20072;-82
2021/07/15 01:08:42;;;;;;;9.57;7.03;;;;;;;26.02;52.47;94538.31;2970353;40;20393;-81
2021/07/15 01:10:47;;;;;;;7.80;7.00;;;;;;;26.08;52.50;94528.41;2969095;40;20067;-82
2021/07/15 01:13:05;;;;;;;8.35;7.22;;;;;;;26.10;52.18;94532.44;2950402;40;20057;-82
2021/07/15 01:15:11;;;;;;;11.23;7.35;;;;;;;26.19;52.03;94532.75;2962922;40;20283;-82
2021/07/15 01:17:17;;;;;;;12.77;7.45;;;;;;;26.21;51.96;94521.78;2970316;40;20165;-82
2021/07/15 01:19:52;;;;;;;10.55;7.18;;;;;;;26.21;52.01;94535.19;2966699;40;20064;-81
2021/07/15 01:22:05;;;;;;;11.82;7.30;;;;;;;26.22;51.88;94528.75;2958177;40;20076;-81
2021/07/15 01:24:16;;;;;;;8.98;7.47;;;;;;;26.21;51.82;94538.69;2967638;40;20071;-80
2021/07/15 01:26:48;;;;;;;9.70;7.35;;;;;;;26.22;51.77;94536.78;2964137;40;20061;-83
2021/07/15 01:29:27;;;;;;;10.15;7.43;;;;;;;26.23;51.81;94539.22;2963139;40;20053;-79
2021/07/15 01:31:50;;;;;;;11.57;7.30;;;;;;;26.22;51.68;94532.25;2969055;40;20124;-82
2021/07/15 01:33:54;;;;;;;10.40;8.35;;;;;;;26.14;52.17;94538.13;2956772;40;20061;-82
2021/07/15 01:36:05;;;;;;;10.03;8.07;;;;;;;26.15;52.20;94534.34;2966606;40;20056;-81
2021/07/15 01:38:07;;;;;;;8.48;6.97;;;;;;;26.14;52.12;94536.22;2967315;40;20347;-83
2021/07/15 01:40:10;;;;;;;8.93;7.55;;;;;;;26.17;52.08;94531.41;2965672;40;20059;-82
2021/07/15 01:42:13;;;;;;;8.83;7.33;;;;;;;26.17;52.03;94537.59;2969438;40;20053;-80
2021/07/15 01:44:20;;;;;;;9.45;7.57;;;;;;;26.19;52.05;94542.69;2959161;40;20138;-81
2021/07/15 01:46:22;;;;;;;14.02;7.57;;;;;;;26.21;51.97;94538.69;2957973;40;20506;-83
2021/07/15 01:48:24;;;;;;;9.25;7.47;;;;;;;26.23;52.18;94535.75;2969525;40;20053;-80
2021/07/15 01:50:27;;;;;;;9.20;7.55;;;;;;;26.20;52.20;94537.06;2968323;40;20048;-80
2021/07/15 01:52:33;;;;;;;9.95;7.50;;;;;;;26.20;52.24;94536.25;2966714;40;20059;-82
2021/07/15 01:54:35;;;;;;;9.98;7.50;;;;;;;26.22;52.28;94544.84;2966312;40;20420;-82
2021/07/15 01:56:39;;;;;;;8.75;6.85;;;;;;;26.22;52.18;94550.22;2969603;40;20156;-83
2021/07/15 01:58:43;;;;;;;9.13;6.55;;;;;;;26.21;52.28;94552.09;2967652;40;20242;-82
2021/07/15 02:00:45;;;;;;;9.43;7.50;;;;;;;26.24;52.05;94548.91;2958715;40;20068;-82
2021/07/15 02:02:48;;;;;;;8.45;7.47;;;;;;;26.27;51.98;94552.94;2970124;40;20170;-82
2021/07/15 02:04:53;;;;;;;10.38;7.22;;;;;;;26.29;52.06;94550.81;2963213;40;20048;-82
2021/07/15 02:06:55;;;;;;;9.45;7.60;;;;;;;26.33;51.80;94554.59;2972420;40;20374;-83
2021/07/15 02:09:01;;;;;;;8.85;7.40;;;;;;;26.33;51.78;94557.28;2967541;40;20387;-82
2021/07/15 02:11:04;;;;;;;12.57;7.38;;;;;;;26.31;51.94;94543.31;2967404;40;20063;-70
2021/07/15 02:13:09;;;;;;;9.82;6.78;;;;;;;26.31;52.08;94552.16;2956891;40;20571;-84
2021/07/15 02:15:14;;;;;;;7.63;6.82;;;;;;;26.33;51.75;94552.72;2962342;40;20033;-81
2021/07/15 02:17:16;;;;;;;9.80;7.57;;;;;;;26.35;51.59;94557.81;2956394;40;20041;-81
2021/07/15 02:19:36;;;;;;;8.75;7.30;;;;;;;26.30;52.03;94557.78;2964072;40;20053;-82
2021/07/15 02:21:38;;;;;;;9.98;7.53;;;;;;;26.24;52.36;94556.13;2961633;40;20076;-83
2021/07/15 02:23:41;;;;;;;9.75;8.07;;;;;;;26.19;52.31;94550.75;2970209;40;20052;-83
2021/07/15 02:25:43;;;;;;;11.33;8.00;;;;;;;26.19;52.51;94550.75;2958314;40;20320;-80
2021/07/15 02:27:47;;;;;;;12.60;8.15;;;;;;;26.18;52.16;94546.44;2969677;40;20059;-82
2021/07/15 02:29:49;;;;;;;10.25;7.88;;;;;;;26.17;52.48;94551.00;2961801;40;20107;-81
2021/07/15 02:32:06;;;;;;;10.77;7.82;;;;;;;26.19;52.24;94550.75;2968945;40;20336;-81
2021/07/15 02:34:20;;;;;;;11.27;7.63;;;;;;;26.18;52.54;94554.50;2963922;40;20105;-82
2021/07/15 02:36:23;;;;;;;9.32;8.00;;;;;;;26.20;52.67;94557.72;2962980;40;20460;-81
2021/07/15 02:38:26;;;;;;;10.32;7.97;;;;;;;26.03;53.58;94558.72;2959133;40;20057;-81
2021/07/15 02:40:28;;;;;;;11.65;7.55;;;;;;;25.89;53.93;94547.63;2970852;40;20052;-82
2021/07/15 02:42:30;;;;;;;10.35;7.95;;;;;;;25.88;54.09;94551.38;2967320;40;20128;-81
2021/07/15 02:44:32;;;;;;;10.70;7.93;;;;;;;25.90;53.95;94543.88;2976625;40;20075;-82
2021/07/15 02:46:35;;;;;;;13.45;8.25;;;;;;;25.88;54.48;94548.69;2968916;40;20079;-81
2021/07/15 02:48:37;;;;;;;10.40;8.15;;;;;;;25.77;54.84;94548.84;2973897;40;20129;-82
2021/07/15 02:50:38;;;;;;;9.35;7.78;;;;;;;25.68;55.27;94551.19;2966643;40;20385;-81
2021/07/15 02:52:41;;;;;;;11.95;8.18;;;;;;;25.68;54.89;94546.66;2965354;40;20356;-82
2021/07/15 02:54:43;;;;;;;10.15;8.40;;;;;;;25.69;55.34;94542.09;2957881;40;20061;-81
2021/07/15 02:57:10;;;;;;;13.88;8.38;;;;;;;25.69;55.47;94545.56;2970990;40;20318;-81
2021/07/15 02:59:30;;;;;;;11.90;8.55;;;;;;;25.69;55.11;94542.88;2958748;40;20467;-81
2021/07/15 03:01:47;;;;;;;10.18;8.30;;;;;;;25.72;55.23;94547.72;2959488;40;20053;-82
2021/07/15 03:04:15;;;;;;;11.52;8.63;;;;;;;25.70;55.25;94551.75;2953083;40;20065;-81
2021/07/15 03:06:23;;;;;;;10.57;8.20;;;;;;;25.61;55.46;94551.41;2964809;40;20060;-81
2021/07/15 03:08:28;;;;;;;11.27;8.45;;;;;;;25.51;55.82;94554.00;2963350;40;20044;-82
2021/07/15 03:10:30;;;;;;;12.70;8.95;;;;;;;25.46;55.90;94554.78;2958903;40;20481;-82
2021/07/15 03:12:34;;;;;;;15.63;9.15;;;;;;;25.50;55.70;94547.03;2966891;40;20052;-82
2021/07/15 03:14:38;;;;;;;12.63;9.02;;;;;;;25.53;55.90;94550.03;2953555;40;20338;-81
2021/07/15 03:16:42;;;;;;;10.95;9.40;;;;;;;25.52;55.97;94550.28;2968137;40;20064;-83
2021/07/15 03:18:45;;;;;;;14.88;9.02;;;;;;;25.53;56.09;94549.19;2967697;40;20068;-81
2021/07/15 03:20:47;;;;;;;11.82;9.38;;;;;;;25.57;56.02;94555.66;2962305;40;20138;-82
2021/07/15 03:22:53;;;;;;;18.50;10.38;;;;;;;25.48;56.25;94562.56;2961314;40;20079;-82
2021/07/15 03:24:58;;;;;;;11.75;9.25;;;;;;;25.48;56.22;94562.56;2958731;40;20437;-82
2021/07/15 03:27:04;;;;;;;11.45;9.52;;;;;;;25.51;56.31;94562.06;2958361;40;20055;-83
2021/07/15 03:29:07;;;;;;;11.02;8.88;;;;;;;25.56;56.29;94556.75;2962566;40;20411;-83
2021/07/15 03:31:10;;;;;;;10.93;9.50;;;;;;;25.62;55.74;94555.72;2966085;40;20063;-83
2021/07/15 03:33:13;;;;;;;11.80;9.50;;;;;;;25.68;55.14;94556.56;2968328;40;20141;-81
2021/07/15 03:35:15;;;;;;;14.18;9.80;;;;;;;25.67;55.01;94555.75;2965252;40;20080;-81
2021/07/15 03:37:18;;;;;;;12.40;10.03;;;;;;;25.72;54.26;94555.78;2963087;40;20044;-82
2021/07/15 03:39:20;;;;;;;11.75;9.77;;;;;;;25.76;53.38;94556.09;2959557;40;20065;-82
2021/07/15 03:41:22;;;;;;;13.18;9.68;;;;;;;25.71;53.05;94558.75;2968876;40;20369;-83
2021/07/15 03:43:24;;;;;;;9.75;8.73;;;;;;;25.70;52.28;94560.59;2965744;40;20137;-82
2021/07/15 03:45:26;;;;;;;11.57;9.15;;;;;;;25.71;52.40;94556.06;2968635;40;20068;-82
2021/07/15 03:47:28;;;;;;;12.13;9.50;;;;;;;25.75;52.19;94557.16;2968930;40;20441;-83
2021/07/15 03:49:31;;;;;;;13.03;8.93;;;;;;;25.78;52.02;94559.31;2967232;40;20203;-84
2021/07/15 03:51:35;;;;;;;15.82;10.05;;;;;;;25.82;52.23;94559.63;2967481;40;20411;-82
2021/07/15 03:53:40;;;;;;;14.68;10.40;;;;;;;25.84;53.47;94560.19;2967101;40;20053;-82
2021/07/15 03:55:43;;;;;;;14.80;10.75;;;;;;;25.85;54.06;94562.56;2963914;40;20413;-81
2021/07/15 03:57:45;;;;;;;13.82;10.50;;;;;;;25.88;53.67;94555.91;2969179;40;20121;-82
2021/07/15 03:59:49;;;;;;;14.10;10.82;;;;;;;25.90;53.78;94553.81;2973083;39;20071;-83
2021/07/15 04:02:11;;;;;;;14.10;11.30;;;;;;;25.86;55.08;94553.47;2974871;40;20040;-82
2021/07/15 04:04:13;;;;;;;16.25;11.77;;;;;;;25.82;55.44;94559.63;2956782;40;20052;-84
2021/07/15 04:06:16;;;;;;;15.57;12.25;;;;;;;25.82;55.20;94557.75;2971833;40;20376;-85
2021/07/15 04:08:23;;;;;;;14.85;11.98;;;;;;;25.79;55.43;94560.13;2970937;40;20354;-84
2021/07/15 04:10:26;;;;;;;19.05;11.90;;;;;;;25.75;55.90;94566.00;2967191;40;20153;-82
2021/07/15 04:12:30;;;;;;;16.23;12.02;;;;;;;25.75;55.74;94562.53;2961036;40;20053;-82
2021/07/15 04:14:48;;;;;;;;;;;;;;;25.77;55.83;94557.72;2969817;40;20110;-83
2021/07/15 04:17:04;;;;;;;14.77;12.57;;;;;;;25.79;55.81;94557.44;2966313;40;19935;-82
2021/07/15 04:19:06;;;;;;;21.25;13.50;;;;;;;25.72;55.77;94560.34;2969015;40;20035;-82
2021/07/15 04:21:09;;;;;;;15.93;12.70;;;;;;;25.78;55.72;94561.19;2960120;40;20471;-84
2021/07/15 04:23:11;;;;;;;17.23;13.60;;;;;;;25.75;55.62;94557.97;2968076;40;20129;-81
2021/07/15 04:25:18;;;;;;;18.38;11.77;;;;;;;25.81;55.68;94550.75;2961084;40;20089;-82
2021/07/15 04:27:21;;;;;;;17.65;13.98;;;;;;;25.87;55.32;94549.72;2956225;40;20141;-83
2021/07/15 04:29:23;;;;;;;16.40;13.68;;;;;;;25.94;55.32;94546.84;2967899;40;20490;-83
2021/07/15 04:31:39;;;;;;;18.33;13.23;;;;;;;26.01;54.99;94552.00;2966003;40;20056;-83
2021/07/15 04:33:42;;;;;;;16.83;13.30;;;;;;;26.04;54.60;94548.78;2968270;40;20050;-81
2021/07/15 04:35:44;;;;;;;18.80;14.35;;;;;;;25.97;55.02;94550.91;2960520;40;20295;-82
2021/07/15 04:37:46;;;;;;;16.23;14.18;;;;;;;25.91;55.11;94550.84;2970056;40;20149;-82
2021/07/15 04:39:47;;;;;;;21.27;14.55;;;;;;;25.90;55.11;94556.50;2953354;40;20069;-83
2021/07/15 04:41:49;;;;;;;19.85;14.13;;;;;;;25.97;54.87;94553.59;2968492;40;20169;-82
2021/07/15 04:43:52;;;;;;;18.60;14.53;;;;;;;26.07;54.60;94550.94;2958650;40;20064;-82
2021/07/15 04:45:55;;;;;;;20.60;14.73;;;;;;;26.08;54.33;94552.56;2968652;40;20080;-81
2021/07/15 04:47:58;;;;;;;20.15;14.88;;;;;;;26.14;54.29;94555.03;2958898;40;20333;-83
2021/07/15 04:49:59;;;;;;;18.75;15.18;;;;;;;26.21;54.09;94554.00;2967110;40;20096;-84
2021/07/15 04:52:03;;;;;;;18.23;14.48;;;;;;;26.33;53.94;94562.66;2967862;40;20084;-81
2021/07/15 04:54:06;;;;;;;21.02;14.55;;;;;;;26.45;53.52;94560.53;2959086;40;20053;-83
2021/07/15 04:56:09;;;;;;;20.40;14.73;;;;;;;26.57;53.18;94562.25;2966627;40;20056;-82
2021/07/15 04:58:11;;;;;;;24.17;16.02;;;;;;;26.61;53.12;94568.69;2963639;40;20052;-82
2021/07/15 05:00:13;;;;;;;19.98;14.77;;;;;;;26.63;53.26;94563.88;2962737;40;20071;-82
2021/07/15 05:02:15;;;;;;;18.95;14.88;;;;;;;26.59;52.97;94566.28;2959389;40;20703;-83
2021/07/15 05:04:17;;;;;;;19.52;14.52;;;;;;;26.53;53.37;94568.09;2966509;40;20060;-81
2021/07/15 05:06:21;;;;;;;19.65;14.73;;;;;;;26.55;53.41;94571.34;2967180;40;20064;-83
2021/07/15 05:08:23;;;;;;;19.52;14.10;;;;;;;26.49;53.59;94569.69;2965328;40;20091;-82
2021/07/15 05:10:25;;;;;;;18.58;13.77;;;;;;;26.48;53.35;94564.56;2960463;40;20065;-80
2021/07/15 05:12:27;;;;;;;18.20;13.63;;;;;;;26.52;53.10;94569.19;2958104;40;20061;-83
2021/07/15 05:14:30;;;;;;;20.10;14.02;;;;;;;26.55;53.20;94570.53;2968467;40;20060;-83
2021/07/15 05:16:32;;;;;;;18.08;13.77;;;;;;;26.67;52.52;94573.03;2950801;40;20145;-82
2021/07/15 05:18:35;;;;;;;18.08;13.52;;;;;;;26.73;52.29;94570.09;2966425;40;20060;-83
2021/07/15 05:20:36;;;;;;;24.17;13.93;;;;;;;26.76;52.54;94576.84;2958155;40;20068;-83
2021/07/15 05:22:38;;;;;;;22.15;14.15;;;;;;;26.71;52.94;94574.91;2962967;40;20049;-83
2021/07/15 05:24:43;;;;;;;20.42;13.95;;;;;;;26.79;52.52;94578.19;2968465;40;20136;-82
2021/07/15 05:26:45;;;;;;;16.70;12.55;;;;;;;26.83;52.30;94577.38;2967810;40;20060;-83
2021/07/15 05:28:47;;;;;;;20.92;12.93;;;;;;;26.88;52.03;94577.41;2969447;40;20136;-84
2021/07/15 05:30:48;;;;;;;18.98;13.55;;;;;;;26.96;51.70;94568.81;2958611;40;20048;-85
2021/07/15 05:32:50;;;;;;;18.35;13.45;;;;;;;27.04;51.53;94582.81;2969641;40;20458;-84
2021/07/15 05:34:52;;;;;;;17.08;13.27;;;;;;;27.01;51.38;94578.78;2968508;40;20052;-84
2021/07/15 05:36:54;;;;;;;18.90;12.55;;;;;;;27.02;51.43;94584.94;2968962;40;20425;-86
2021/07/15 05:38:55;;;;;;;20.10;12.52;;;;;;;26.99;51.35;94580.13;2964340;40;20089;-83
2021/07/15 05:40:57;;;;;;;16.02;12.00;;;;;;;26.95;51.52;94577.97;2966427;40;20048;-85
2021/07/15 05:42:59;;;;;;;18.65;11.60;;;;;;;26.88;51.31;94584.66;2966700;40;20113;-83
2021/07/15 05:45:01;;;;;;;15.63;11.68;;;;;;;26.89;51.44;94586.28;2973565;40;20118;-84
2021/07/15 05:47:03;;;;;;;16.08;11.95;;;;;;;26.99;51.77;94585.50;2969397;40;20383;-84
2021/07/15 05:49:08;;;;;;;18.60;12.20;;;;;;;27.05;51.18;94579.06;2961597;40;20401;-83
2021/07/15 05:51:09;;;;;;;19.38;13.07;;;;;;;27.15;51.33;94573.72;2967281;40;20081;-84
2021/07/15 05:53:11;;;;;;;20.85;13.40;;;;;;;27.25;50.90;94573.75;2958617;40;20060;-84
2021/07/15 05:55:13;;;;;;;16.55;12.57;;;;;;;27.24;51.10;94569.44;2966992;40;20403;-83
2021/07/15 05:57:14;;;;;;;19.10;11.98;;;;;;;27.15;51.49;94574.50;2973561;40;20060;-83
2021/07/15 05:59:16;;;;;;;16.75;12.60;;;;;;;27.14;51.81;94578.25;2968980;40;20080;-86
2021/07/15 06:01:19;;;;;;;14.30;11.63;;;;;;;27.23;51.03;94581.25;2973738;40;20076;-85
2021/07/15 06:03:21;;;;;;;15.43;12.75;;;;;;;27.38;50.92;94577.78;2964804;40;20045;-70
2021/07/15 06:05:24;;;;;;;17.55;12.85;;;;;;;27.50;50.83;94585.63;2963793;40;20467;-70
2021/07/15 06:07:26;;;;;;;18.80;11.80;;;;;;;27.28;51.12;94572.44;2966551;40;20116;-71
2021/07/15 06:09:28;;;;;;;15.60;12.20;;;;;;;27.04;51.62;94572.06;2957136;40;20528;-69
2021/07/15 06:11:30;;;;;;;18.73;12.98;;;;;;;27.07;51.53;94575.03;2964895;40;20064;-70
2021/07/15 06:13:32;;;;;;;21.67;12.60;;;;;;;27.06;52.10;94565.38;2961854;40;20049;-69
2021/07/15 06:15:34;;;;;;;21.25;13.30;;;;;;;26.65;53.26;94561.72;2966526;40;20145;-70
2021/07/15 06:17:35;;;;;;;17.90;11.98;;;;;;;26.48;53.91;94564.56;2957042;40;20057;-69
2021/07/15 06:19:37;;;;;;;18.20;12.18;;;;;;;26.72;53.60;94565.00;2966810;40;20157;-69
2021/07/15 06:21:39;;;;;;;17.17;12.70;;;;;;;26.99;52.58;94564.00;2968264;40;20056;-85
2021/07/15 06:23:41;;;;;;;16.83;13.32;;;;;;;27.13;52.21;94555.16;2954006;40;20089;-83
2021/07/15 06:25:42;;;;;;;18.88;12.18;;;;;;;27.29;51.64;94561.38;2967808;40;20056;-85
2021/07/15 06:27:45;;;;;;;18.30;12.35;;;;;;;27.36;51.68;94561.94;2967682;40;20145;-83
2021/07/15 06:29:46;;;;;;;23.83;13.18;;;;;;;27.35;51.30;94564.91;2961429;40;20060;-85
2021/07/15 06:31:48;;;;;;;26.23;13.38;;;;;;;27.48;51.04;94563.56;2963689;40;20152;-82
2021/07/15 06:33:51;;;;;;;15.48;12.55;;;;;;;27.47;50.65;94560.06;2957608;40;20057;-82
2021/07/15 06:35:53;;;;;;;19.73;12.38;;;;;;;27.42;51.25;94553.88;2966380;40;20107;-81
2021/07/15 06:37:55;;;;;;;23.08;12.93;;;;;;;27.20;51.14;94546.81;2970655;40;20088;-83
2021/07/15 06:39:57;;;;;;;19.45;11.88;;;;;;;27.14;51.67;94553.25;2967368;40;20068;-82
2021/07/15 06:41:59;;;;;;;17.75;11.38;;;;;;;27.18;51.94;94555.16;2967729;40;20060;-84
2021/07/15 06:44:01;;;;;;;17.30;12.23;;;;;;;27.33;51.39;94543.63;2966376;40;20068;-87
2021/07/15 06:46:03;;;;;;;19.48;12.38;;;;;;;27.21;51.29;94545.75;2963915;40;20056;-80
2021/07/15 06:48:05;;;;;;;16.55;11.63;;;;;;;27.30;51.19;94544.19;2956118;40;20370;-82
2021/07/15 06:50:10;;;;;;;14.82;11.68;;;;;;;27.47;51.18;94548.47;2960353;40;20057;-81
2021/07/15 06:52:11;;;;;;;13.38;11.82;;;;;;;27.67;50.01;94542.31;2969958;40;20091;-83
2021/07/15 06:54:13;;;;;;;15.85;11.43;;;;;;;27.87;49.80;94539.63;2968170;40;20125;-84
2021/07/15 06:56:17;;;;;;;17.73;12.18;;;;;;;28.01;49.36;94547.13;2968685;40;20380;-85
2021/07/15 06:58:19;;;;;;;17.40;11.73;;;;;;;27.91;49.61;94542.59;2963257;40;20122;-83
2021/07/15 07:00:22;;;;;;;13.45;10.70;;;;;;;28.03;49.02;94540.41;2967878;40;20085;-83
2021/07/15 07:02:24;;;;;;;16.17;11.93;;;;;;;28.09;48.99;94544.72;2973106;40;20066;-81
2021/07/15 07:04:26;;;;;;;22.50;12.80;;;;;;;28.18;48.71;94531.50;2965661;40;21987;-82
2021/07/15 07:06:28;;;;;;;17.40;11.80;;;;;;;28.23;48.54;94533.38;2963217;40;20068;-82
2021/07/15 07:08:29;;;;;;;15.23;11.85;;;;;;;28.19;48.85;94535.78;2969448;40;20064;-82
2021/07/15 07:10:31;;;;;;;17.17;12.30;;;;;;;28.31;48.35;94533.59;2970975;40;20398;-84
2021/07/15 07:12:33;;;;;;;17.60;12.70;;;;;;;28.52;47.77;94536.25;2959859;40;20052;-81
2021/07/15 07:14:35;;;;;;;16.60;11.25;;;;;;;28.58;47.63;94529.75;2968753;40;20060;-86
2021/07/15 07:16:36;;;;;;;14.40;11.18;;;;;;;28.34;48.02;94530.34;2971835;40;20309;-82
2021/07/15 07:18:38;;;;;;;14.88;11.27;;;;;;;28.31;47.61;94522.84;2966608;40;20057;-81
2021/07/15 07:20:40;;;;;;;13.63;11.18;;;;;;;28.02;48.17;94525.31;2964174;40;20056;-83
2021/07/15 07:22:42;;;;;;;16.17;11.20;;;;;;;28.02;48.88;94522.63;2963423;40;20061;-70
2021/07/15 07:24:44;;;;;;;14.57;11.15;;;;;;;28.12;48.14;94514.53;2966989;40;20310;-70
2021/07/15 07:26:46;;;;;;;17.60;11.68;;;;;;;28.30;48.05;94513.13;2965988;40;20333;-71
2021/07/15 07:28:47;;;;;;;15.40;11.73;;;;;;;28.51;47.88;94511.19;2966307;40;20147;-69
2021/07/15 07:30:49;;;;;;;20.48;11.18;;;;;;;28.53;47.19;94514.41;2966282;40;20072;-70
2021/07/15 07:32:51;;;;;;;16.30;11.77;;;;;;;28.43;47.32;94513.63;2957857;40;20209;-68
2021/07/15 07:34:53;;;;;;;15.43;11.77;;;;;;;28.19;47.97;94506.16;2966659;40;20156;-70
2021/07/15 07:36:56;;;;;;;15.80;11.65;;;;;;;28.15;48.42;94507.78;2967026;40;20064;-70
2021/07/15 07:38:58;;;;;;;21.17;12.25;;;;;;;28.14;48.63;94498.91;2963328;40;20055;-69
2021/07/15 07:41:00;;;;;;;16.88;11.15;;;;;;;28.02;48.57;94500.28;2967564;40;20060;-70
2021/07/15 07:43:02;;;;;;;17.02;11.90;;;;;;;27.97;48.56;94498.44;2959044;40;20056;-69
2021/07/15 07:45:05;;;;;;;20.58;11.90;;;;;;;27.89;48.48;94507.06;2960824;40;20409;-69
2021/07/15 07:47:07;;;;;;;14.10;10.65;;;;;;;27.95;48.94;94497.88;2962014;40;20085;-70
2021/07/15 07:49:09;;;;;;;14.27;10.32;;;;;;;27.98;48.38;94502.72;2965839;40;20044;-68
2021/07/15 07:51:11;;;;;;;19.92;10.52;;;;;;;27.84;48.36;94496.28;2957764;40;20061;-70
2021/07/15 07:53:13;;;;;;;19.55;11.38;;;;;;;27.95;48.40;94497.88;2966963;40;20092;-69
2021/07/15 07:55:15;;;;;;;16.90;11.48;;;;;;;27.77;48.21;94499.25;2963335;40;20064;-70
2021/07/15 07:57:17;;;;;;;13.63;10.40;;;;;;;27.62;48.92;94494.69;2967189;40;20045;-71
2021/07/15 07:59:18;;;;;;;13.05;10.05;;;;;;;27.29;49.55;94496.84;2964964;40;20092;-69
2021/07/15 08:01:20;;;;;;;13.15;8.95;;;;;;;27.41;49.50;94498.47;2966997;40;20068;-68
2021/07/15 08:03:22;;;;;;;19.40;10.23;;;;;;;27.43;49.65;94497.13;2967092;40;20057;-70
2021/07/15 08:05:25;;;;;;;18.92;10.20;;;;;;;27.41;49.57;94491.19;2964657;40;20313;-69
2021/07/15 08:07:27;;;;;;;13.98;9.85;;;;;;;27.50;48.79;94489.56;2968409;40;20270;-67
2021/07/15 08:09:31;;;;;;;12.52;10.05;;;;;;;27.87;48.21;94487.66;2950034;40;20087;-70
2021/07/15 08:11:33;;;;;;;12.45;9.93;;;;;;;28.30;47.88;94488.88;2969382;40;20501;-69
2021/07/15 08:13:34;;;;;;;12.90;9.55;;;;;;;28.70;46.94;94489.03;2966567;40;20133;-72
2021/07/15 08:15:36;;;;;;;17.00;9.30;;;;;;;29.07;45.99;94493.09;2958142;40;20060;-69
2021/07/15 08:17:39;;;;;;;13.75;9.07;;;;;;;29.26;45.24;94491.38;2968913;40;20067;-70
2021/07/15 08:19:41;;;;;;;14.05;8.77;;;;;;;29.35;44.46;94488.88;2968083;40;20100;-70
2021/07/15 08:21:43;;;;;;;12.02;8.75;;;;;;;29.25;44.56;94492.44;2965115;40;20054;-69
2021/07/15 08:23:45;;;;;;;13.77;8.95;;;;;;;29.22;44.75;94489.53;2966184;40;20044;-70
2021/07/15 08:25:47;;;;;;;14.32;8.73;;;;;;;29.32;44.31;94489.41;2967358;40;20097;-70
2021/07/15 08:27:49;;;;;;;11.35;8.98;;;;;;;29.32;43.95;94484.84;2962402;40;20167;-71
2021/07/15 08:29:51;;;;;;;13.73;9.23;;;;;;;29.48;43.91;94479.34;2965232;40;20048;-71
2021/07/15 08:31:53;;;;;;;15.57;8.75;;;;;;;29.61;43.74;94478.66;2968171;40;20523;-82
2021/07/15 08:33:55;;;;;;;11.25;8.93;;;;;;;29.67;43.56;94482.13;2964402;40;20060;-82
2021/07/15 08:35:56;;;;;;;15.70;10.88;;;;;;;29.87;42.98;94476.56;2970704;40;20282;-82
2021/07/15 08:37:59;;;;;;;11.57;9.32;;;;;;;30.14;42.88;94473.31;2964144;40;20519;-81
2021/07/15 08:40:04;;;;;;;10.48;8.70;;;;;;;30.27;42.44;94479.09;2963466;40;20100;-82
2021/07/15 08:42:07;;;;;;;11.77;8.35;;;;;;;30.47;42.03;94476.16;2960400;40;20052;-83
2021/07/15 08:44:10;;;;;;;10.68;7.93;;;;;;;30.67;41.58;94474.28;2967210;40;20072;-84
2021/07/15 08:46:15;;;;;;;13.30;8.80;;;;;;;30.65;41.36;94477.28;2961807;40;20090;-85
2021/07/15 08:48:20;;;;;;;10.43;9.07;;;;;;;30.75;40.62;94476.34;2959538;40;20575;-83
2021/07/15 08:50:22;;;;;;;16.45;9.73;;;;;;;30.84;40.54;94463.78;2964806;40;20056;-83
2021/07/15 08:52:24;;;;;;;12.68;9.23;;;;;;;30.90;41.13;94464.56;2958965;40;20104;-80
2021/07/15 08:54:47;;;;;;;12.38;9.48;;;;;;;31.05;40.99;94474.34;2963554;40;20075;-85
2021/07/15 08:56:49;;;;;;;15.43;9.68;;;;;;;31.07;40.80;94466.75;2966654;40;20397;-83
2021/07/15 08:58:51;;;;;;;9.57;7.95;;;;;;;31.18;40.36;94465.47;2969439;40;20056;-84
2021/07/15 09:00:53;;;;;;;9.35;8.30;;;;;;;31.21;40.25;94460.28;2969330;40;20053;-84
2021/07/15 09:02:55;;;;;;;16.08;8.85;;;;;;;31.21;40.20;94463.00;2964931;40;20060;-83
2021/07/15 09:04:57;;;;;;;13.05;8.90;;;;;;;30.79;40.88;94469.28;2956559;40;20053;-69
2021/07/15 09:06:58;;;;;;;11.40;8.43;;;;;;;30.79;41.54;94461.97;2957543;40;20061;-69
2021/07/15 09:09:00;;;;;;;14.32;9.68;;;;;;;30.67;41.52;94466.19;2957058;40;20093;-70
2021/07/15 09:11:02;;;;;;;14.85;9.98;;;;;;;30.16;42.30;94454.09;2959897;40;20145;-69
2021/07/15 09:13:04;;;;;;;17.20;9.57;;;;;;;30.07;42.77;94453.91;2956160;40;20585;-70
2021/07/15 09:15:11;;;;;;;14.63;8.52;;;;;;;29.90;43.08;94451.69;2957507;40;20053;-70
2021/07/15 09:17:13;;;;;;;21.63;9.05;;;;;;;29.99;42.80;94446.47;2964004;40;20071;-70
2021/07/15 09:19:15;;;;;;;13.30;8.70;;;;;;;30.27;42.35;94452.09;2967105;40;20055;-71
2021/07/15 09:21:21;;;;;;;17.30;9.00;;;;;;;30.35;42.43;94457.69;2968419;40;20049;-70
2021/07/15 09:23:33;;;;;;;11.07;8.15;;;;;;;30.77;41.94;94449.81;2968029;40;20060;-69
2021/07/15 09:25:38;;;;;;;12.30;9.73;;;;;;;31.00;41.02;94448.97;2963812;40;20213;-70
2021/07/15 09:27:48;;;;;;;13.15;9.80;;;;;;;31.23;40.58;94449.16;2955211;40;20045;-69
2021/07/15 09:30:09;;;;;;;18.52;9.68;;;;;;;31.42;40.32;94452.66;2949426;40;20380;-70
2021/07/15 09:32:15;;;;;;;13.75;10.50;;;;;;;31.62;40.01;94448.81;2965082;40;20411;-69
2021/07/15 09:34:17;;;;;;;10.40;9.20;;;;;;;31.47;39.81;94443.66;2966110;40;20056;-69
2021/07/15 09:36:20;;;;;;;15.57;11.25;;;;;;;30.86;40.79;94445.41;2963271;40;20416;-70